createdAt,value
2018-09-17T00:00:00.834Z,5.53
2018-09-17T00:02:28.859Z,6.17
2018-09-17T00:04:56.900Z,6.70
2018-09-17T00:07:24.933Z,6.30
2018-09-17T00:09:52.973Z,6.43
2018-09-17T00:12:21.008Z,4.80
2018-09-17T00:14:49.029Z,4.80
2018-09-17T00:17:17.065Z,4.57
2018-09-17T00:19:45.097Z,4.10
2018-09-17T00:22:13.271Z,4.17
2018-09-17T00:24:41.424Z,4.57
2018-09-17T00:27:09.427Z,4.87
2018-09-17T00:29:37.468Z,5.60
2018-09-17T00:32:05.497Z,4.77
2018-09-17T00:34:33.528Z,6.17
2018-09-17T00:37:01.578Z,5.03
2018-09-17T00:39:29.610Z,5.00
2018-09-17T00:41:57.643Z,4.77
2018-09-17T00:44:25.667Z,4.40
2018-09-17T00:46:53.716Z,4.60
2018-09-17T00:49:22.028Z,6.12
2018-09-17T00:51:50.070Z,10.03
2018-09-17T00:54:18.179Z,10.57
2018-09-17T00:56:46.242Z,9.03
2018-09-17T00:59:14.275Z,7.25
2018-09-17T01:01:42.288Z,5.70
2018-09-17T01:04:10.432Z,5.66
2018-09-17T01:06:38.463Z,5.53
2018-09-17T01:09:07.671Z,5.93
2018-09-17T01:11:35.698Z,6.37
2018-09-17T01:14:03.715Z,6.17
2018-09-17T01:16:31.752Z,6.53
2018-09-17T01:19:00.080Z,7.53
2018-09-17T01:21:28.161Z,7.07
2018-09-17T01:23:56.212Z,7.20
2018-09-17T01:26:24.303Z,6.27
2018-09-17T01:28:52.328Z,6.83
2018-09-17T01:31:20.463Z,6.33
2018-09-17T01:33:48.813Z,8.40
2018-09-17T01:36:16.844Z,6.73
2018-09-17T01:38:44.896Z,5.67
2018-09-17T01:41:13.034Z,5.45
2018-09-17T01:43:41.047Z,6.13
2018-09-17T01:46:09.193Z,5.67
2018-09-17T01:48:37.180Z,6.60
2018-09-17T01:51:05.210Z,6.67
2018-09-17T01:53:33.233Z,6.50
2018-09-17T01:56:01.249Z,6.80
2018-09-17T01:58:29.275Z,5.90
2018-09-17T02:00:57.292Z,7.63
2018-09-17T02:03:25.320Z,7.57
2018-09-17T02:06:00.232Z,6.67
2018-09-17T02:08:28.306Z,6.60
2018-09-17T02:10:56.340Z,5.93
2018-09-17T02:13:24.359Z,7.23
2018-09-17T02:15:52.379Z,6.80
2018-09-17T02:18:20.400Z,6.53
2018-09-17T02:20:48.416Z,7.83
2018-09-17T02:23:16.449Z,7.72
2018-09-17T02:25:44.760Z,6.53
2018-09-17T02:28:12.793Z,7.67
2018-09-17T02:30:40.823Z,7.10
2018-09-17T02:33:08.969Z,8.10
2018-09-17T02:35:37.000Z,8.70
2018-09-17T02:38:05.165Z,7.50
2018-09-17T02:40:33.212Z,7.50
2018-09-17T02:43:01.254Z,7.80
2018-09-17T02:45:29.430Z,7.90
2018-09-17T02:47:57.449Z,7.43
2018-09-17T02:50:25.481Z,7.43
2018-09-17T02:52:53.512Z,7.50
2018-09-17T02:55:21.538Z,7.10
2018-09-17T02:57:49.695Z,6.43
2018-09-17T03:00:20.340Z,6.70
2018-09-17T03:02:49.484Z,7.43
2018-09-17T03:05:17.511Z,7.17
2018-09-17T03:07:45.721Z,7.97
2018-09-17T03:10:13.744Z,6.50
2018-09-17T03:12:41.783Z,7.33
2018-09-17T03:15:21.206Z,6.25
2018-09-17T03:17:49.240Z,7.53
2018-09-17T03:20:17.420Z,7.93
2018-09-17T03:22:45.442Z,7.33
2018-09-17T03:25:14.135Z,7.20
2018-09-17T03:27:42.165Z,8.33
2018-09-17T03:30:10.275Z,7.27
2018-09-17T03:32:38.298Z,6.97
2018-09-17T03:35:06.344Z,7.43
2018-09-17T03:37:34.480Z,7.90
2018-09-17T03:40:02.504Z,9.10
2018-09-17T03:42:30.608Z,7.73
2018-09-17T03:44:59.065Z,8.37
2018-09-17T03:47:27.614Z,7.57
2018-09-17T03:49:55.636Z,7.43
2018-09-17T03:52:24.052Z,6.80
2018-09-17T03:54:52.078Z,7.87
2018-09-17T03:57:20.436Z,7.67
2018-09-17T03:59:48.496Z,7.90
2018-09-17T04:02:16.776Z,7.80
2018-09-17T04:04:44.876Z,6.40
2018-09-17T04:07:13.016Z,6.40
2018-09-17T04:09:43.829Z,6.80
2018-09-17T04:12:12.216Z,6.30
2018-09-17T04:14:40.263Z,6.80
2018-09-17T04:17:08.300Z,6.80
2018-09-17T04:19:36.528Z,7.60
2018-09-17T04:22:05.145Z,9.10
2018-09-17T04:24:33.248Z,7.80
2018-09-17T04:27:01.873Z,8.80
2018-09-17T04:29:29.923Z,9.07
2018-09-17T04:31:57.975Z,9.30
2018-09-17T04:34:26.042Z,9.07
2018-09-17T04:36:54.085Z,8.45
2018-09-17T04:39:23.753Z,8.80
2018-09-17T04:41:51.803Z,10.03
2018-09-17T04:44:19.911Z,10.30
2018-09-17T04:46:48.034Z,9.23
2018-09-17T04:49:17.824Z,9.77
2018-09-17T04:51:45.971Z,9.67
2018-09-17T04:54:14.017Z,9.30
2018-09-17T04:56:42.124Z,9.93
2018-09-17T04:59:10.185Z,11.35
2018-09-17T05:01:38.242Z,10.20
2018-09-17T05:04:06.286Z,11.47
2018-09-17T05:06:34.374Z,10.27
2018-09-17T05:09:02.426Z,11.33
2018-09-17T05:11:30.471Z,11.50
2018-09-17T05:13:58.522Z,12.30
2018-09-17T05:16:26.580Z,11.90
2018-09-17T05:18:54.640Z,12.00
2018-09-17T05:21:22.703Z,12.75
2018-09-17T05:23:51.188Z,12.83
2018-09-17T05:26:19.255Z,13.67
2018-09-17T05:28:47.368Z,14.13
2018-09-17T05:31:15.419Z,12.50
2018-09-17T05:33:43.524Z,13.30
2018-09-17T05:36:11.776Z,12.40
2018-09-17T05:38:39.853Z,13.33
2018-09-17T05:41:07.924Z,12.47
2018-09-17T05:43:35.972Z,11.80
2018-09-17T05:46:11.256Z,12.75
2018-09-17T05:48:39.283Z,15.10
2018-09-17T05:51:07.316Z,13.23
2018-09-17T05:53:35.500Z,13.67
2018-09-17T05:56:03.791Z,12.73
2018-09-17T05:58:31.816Z,13.22
2018-09-17T06:00:59.855Z,13.80
2018-09-17T06:03:28.007Z,14.87
2018-09-17T06:05:56.064Z,14.53
2018-09-17T06:08:24.097Z,14.03
2018-09-17T06:10:52.144Z,13.93
2018-09-17T06:13:20.329Z,15.33
2018-09-17T06:15:48.997Z,15.07
2018-09-17T06:18:18.044Z,14.47
2018-09-17T06:20:46.141Z,15.13
2018-09-17T06:23:14.227Z,15.10
2018-09-17T06:25:42.217Z,15.97
2018-09-17T06:28:10.291Z,14.27
2018-09-17T06:30:38.327Z,16.60
2018-09-17T06:33:06.383Z,15.70
2018-09-17T06:35:34.446Z,15.43
2018-09-17T06:38:02.467Z,16.40
2018-09-17T06:40:30.491Z,14.93
2018-09-17T06:42:58.587Z,15.47
2018-09-17T06:45:26.763Z,15.30
2018-09-17T06:47:54.780Z,16.77
2018-09-17T06:50:22.875Z,17.32
2018-09-17T06:52:50.941Z,18.27
2018-09-17T06:55:18.960Z,16.70
2018-09-17T06:57:46.994Z,18.12
2018-09-17T07:00:15.076Z,17.30
2018-09-17T07:02:43.109Z,17.33
2018-09-17T07:05:11.136Z,17.55
2018-09-17T07:07:39.192Z,18.20
2018-09-17T07:10:08.036Z,15.10
2018-09-17T07:12:36.483Z,17.30
2018-09-17T07:20:18.480Z,15.73
2018-09-17T07:22:46.511Z,15.13
2018-09-17T07:25:14.556Z,14.93
2018-09-17T07:27:42.570Z,14.68
2018-09-17T07:30:10.599Z,15.47
2018-09-17T07:32:38.839Z,13.50
2018-09-17T07:35:06.851Z,14.47
2018-09-17T07:37:35.136Z,13.97
2018-09-17T07:40:03.359Z,14.60
2018-09-17T07:42:31.721Z,14.20
2018-09-17T07:44:59.734Z,15.47
2018-09-17T07:47:27.859Z,14.93
2018-09-17T07:49:55.881Z,12.77
2018-09-17T07:52:23.944Z,15.00
2018-09-17T07:54:51.990Z,12.70
2018-09-17T07:57:20.024Z,11.90
2018-09-17T07:59:48.052Z,12.53
2018-09-17T08:02:16.098Z,13.40
2018-09-17T08:04:44.196Z,12.87
2018-09-17T08:07:12.282Z,13.13
2018-09-17T08:09:40.309Z,13.90
2018-09-17T08:12:08.420Z,13.00
2018-09-17T08:14:36.459Z,12.00
2018-09-17T08:17:04.832Z,12.87
2018-09-17T08:19:32.925Z,11.40
2018-09-17T08:22:01.568Z,12.50
2018-09-17T08:24:29.658Z,11.73
2018-09-17T08:26:57.699Z,10.60
2018-09-17T08:29:25.756Z,10.40
2018-09-17T08:31:53.810Z,10.27
2018-09-17T08:34:22.233Z,10.10
2018-09-17T08:36:50.266Z,10.87
2018-09-17T08:39:18.376Z,10.72
2018-09-17T08:41:46.475Z,9.87
2018-09-17T08:44:14.577Z,10.03
2018-09-17T08:46:42.895Z,9.77
2018-09-17T08:49:10.937Z,9.40
2018-09-17T08:51:38.964Z,8.73
2018-09-17T08:54:07.139Z,9.63
2018-09-17T08:56:40.731Z,9.83
2018-09-17T08:59:14.407Z,10.43
2018-09-17T09:01:47.755Z,10.03
2018-09-17T09:04:21.144Z,9.60
2018-09-17T09:06:55.650Z,9.03
2018-09-17T09:09:23.676Z,7.58
2018-09-17T09:11:57.088Z,9.03
2018-09-17T09:14:30.399Z,7.93
2018-09-17T09:16:58.463Z,7.80
2018-09-17T09:19:26.581Z,7.30
2018-09-17T09:21:54.895Z,6.87
2018-09-17T09:24:22.953Z,7.93
2018-09-17T09:26:51.004Z,7.27
2018-09-17T09:29:19.076Z,6.93
2018-09-17T09:31:47.129Z,6.93
2018-09-17T09:34:15.864Z,7.13
2018-09-17T09:36:43.916Z,6.20
2018-09-17T09:39:12.533Z,6.63
2018-09-17T09:41:40.740Z,5.97
2018-09-17T09:44:09.189Z,6.43
2018-09-17T09:46:37.213Z,5.70
2018-09-17T09:49:05.305Z,6.93
2018-09-17T09:51:33.382Z,5.43
2018-09-17T09:54:01.478Z,5.90
2018-09-17T09:56:29.504Z,4.80
2018-09-17T09:58:57.536Z,5.30
2018-09-17T10:01:26.745Z,6.03
2018-09-17T10:04:00.224Z,4.70
2018-09-17T10:06:28.256Z,4.87
2018-09-17T10:09:01.732Z,4.73
2018-09-17T10:11:35.136Z,4.57
2018-09-17T10:14:08.440Z,5.00
2018-09-17T10:16:37.062Z,4.30
2018-09-17T10:19:10.892Z,4.20
2018-09-17T10:21:39.029Z,4.30
2018-09-17T10:24:07.060Z,3.80
2018-09-17T10:26:35.153Z,4.10
2018-09-17T10:29:03.192Z,4.67
2018-09-17T10:31:31.237Z,4.40
2018-09-17T10:33:59.309Z,3.67
2018-09-17T10:36:27.469Z,3.93
2018-09-17T10:38:55.480Z,3.40
2018-09-17T10:41:23.528Z,4.17
2018-09-17T10:43:51.572Z,3.20
2018-09-17T10:46:19.616Z,2.60
2018-09-17T10:48:47.864Z,3.43
2018-09-17T10:51:15.907Z,2.97
2018-09-17T10:53:44.159Z,2.83
2018-09-17T10:56:12.196Z,3.20
2018-09-17T10:58:40.465Z,3.10
2018-09-17T11:01:08.495Z,3.10
2018-09-17T11:03:36.541Z,2.90
2018-09-17T11:06:04.824Z,3.23
2018-09-17T11:08:32.880Z,2.60
2018-09-17T11:11:00.904Z,2.97
2018-09-17T11:13:28.936Z,2.40
2018-09-17T11:15:57.208Z,2.60
2018-09-17T11:18:25.241Z,2.53
2018-09-17T11:20:53.547Z,2.37
2018-09-17T11:23:21.632Z,2.63
2018-09-17T11:25:49.660Z,2.60
2018-09-17T11:28:17.810Z,2.73
2018-09-17T11:30:45.903Z,2.27
2018-09-17T11:33:14.072Z,2.50
2018-09-17T11:35:42.385Z,2.73
2018-09-17T11:38:10.730Z,3.05
2018-09-17T11:40:38.755Z,3.30
2018-09-17T11:43:06.842Z,3.53
2018-09-17T11:45:34.902Z,2.87
2018-09-17T11:48:02.967Z,3.40
2018-09-17T11:50:31.295Z,2.90
2018-09-17T11:52:59.492Z,2.80
2018-09-17T11:55:27.637Z,2.63
2018-09-17T11:57:55.923Z,2.60
2018-09-17T12:00:29.365Z,2.63
2018-09-17T12:03:02.796Z,2.70
2018-09-17T12:05:36.122Z,2.40
2018-09-17T12:08:09.334Z,2.87
2018-09-17T12:10:37.369Z,2.60
2018-09-17T12:13:05.401Z,2.23
2018-09-17T12:15:33.420Z,2.27
2018-09-17T12:18:07.536Z,2.90
2018-09-17T12:20:35.611Z,2.60
2018-09-17T12:23:03.675Z,2.50
2018-09-17T12:25:31.732Z,3.27
2018-09-17T12:27:59.785Z,2.53
2018-09-17T12:30:28.148Z,2.70
2018-09-17T12:32:56.288Z,2.50
2018-09-17T12:35:24.353Z,2.37
2018-09-17T12:37:52.736Z,2.70
2018-09-17T12:40:20.806Z,2.67
2018-09-17T12:42:48.858Z,2.30
2018-09-17T12:45:16.901Z,2.30
2018-09-17T12:47:44.936Z,2.47
2018-09-17T12:50:12.959Z,2.40
2018-09-17T12:52:41.164Z,3.03
2018-09-17T12:55:09.224Z,2.83
2018-09-17T12:57:37.572Z,2.43
2018-09-17T13:00:06.448Z,2.27
2018-09-17T13:02:34.601Z,2.33
2018-09-17T13:05:02.683Z,2.07
2018-09-17T13:07:30.723Z,2.17
2018-09-17T13:09:58.741Z,2.20
2018-09-17T13:12:26.781Z,2.27
2018-09-17T13:14:55.284Z,2.70
2018-09-17T13:17:23.403Z,2.20
2018-09-17T13:19:51.435Z,2.13
2018-09-17T13:22:19.514Z,2.67
2018-09-17T13:24:47.561Z,2.10
2018-09-17T13:27:15.743Z,2.50
2018-09-17T13:29:43.793Z,2.23
2018-09-17T13:32:11.889Z,2.27
2018-09-17T13:34:40.227Z,2.40
2018-09-17T13:37:08.285Z,2.37
2018-09-17T13:39:36.448Z,2.60
2018-09-17T13:42:04.757Z,2.40
2018-09-17T13:44:32.880Z,2.90
2018-09-17T13:47:00.853Z,2.30
2018-09-17T13:49:28.901Z,2.50
2018-09-17T13:51:57.104Z,2.37
2018-09-17T13:54:25.274Z,2.57
2018-09-17T13:56:53.488Z,2.10
2018-09-17T13:59:21.527Z,2.00
2018-09-17T14:01:49.660Z,2.60
2018-09-17T14:04:17.705Z,2.17
2018-09-17T14:06:45.667Z,2.00
2018-09-17T14:09:14.006Z,2.37
2018-09-17T14:11:42.154Z,2.60
2018-09-17T14:14:10.335Z,2.27
2018-09-17T14:16:38.352Z,2.30
2018-09-17T14:19:06.372Z,2.37
2018-09-17T14:21:34.427Z,2.27
2018-09-17T14:24:02.445Z,2.20
2018-09-17T14:26:30.515Z,2.40
2018-09-17T14:28:58.731Z,2.60
2018-09-17T14:31:32.038Z,2.33
2018-09-17T14:34:00.080Z,2.30
2018-09-17T14:36:28.139Z,2.60
2018-09-17T14:38:56.147Z,2.90
2018-09-17T14:41:24.201Z,2.70
2018-09-17T14:43:52.322Z,2.70
2018-09-17T14:46:20.335Z,3.10
2018-09-17T14:48:48.282Z,3.20
2018-09-17T14:51:16.455Z,3.57
2018-09-17T14:53:44.540Z,2.90
2018-09-17T14:56:12.572Z,2.92
2018-09-17T14:58:40.628Z,3.37
2018-09-17T15:01:08.630Z,2.97
2018-09-17T15:03:36.648Z,2.60
2018-09-17T15:06:05.209Z,2.13
2018-09-17T15:08:33.273Z,2.63
2018-09-17T15:11:01.278Z,2.20
2018-09-17T15:13:29.308Z,2.30
2018-09-17T15:15:59.018Z,2.63
2018-09-17T15:18:27.296Z,2.40
2018-09-17T15:20:55.585Z,2.50
2018-09-17T15:23:23.683Z,2.63
2018-09-17T15:25:52.042Z,3.10
2018-09-17T15:28:20.188Z,3.00
2018-09-17T15:30:48.233Z,2.90
2018-09-17T15:33:16.276Z,2.72
2018-09-17T15:35:44.341Z,3.03
2018-09-17T15:38:12.410Z,2.17
2018-09-17T15:40:40.450Z,2.50
2018-09-17T15:43:08.458Z,2.60
2018-09-17T15:45:36.492Z,2.37
2018-09-17T15:48:05.151Z,2.65
2018-09-17T15:50:33.341Z,3.10
2018-09-17T15:53:01.361Z,2.73
2018-09-17T15:55:29.388Z,2.50
2018-09-17T15:57:57.554Z,2.73
2018-09-17T16:00:25.473Z,2.80
2018-09-17T16:02:53.789Z,3.10
2018-09-17T16:05:21.781Z,3.43
2018-09-17T16:07:49.843Z,3.22
2018-09-17T16:10:18.089Z,2.90
2018-09-17T16:12:46.135Z,3.30
2018-09-17T16:15:14.230Z,3.03
2018-09-17T16:17:42.275Z,3.50
2018-09-17T16:20:10.316Z,3.00
2018-09-17T16:22:39.347Z,2.53
2018-09-17T16:25:07.389Z,3.27
2018-09-17T16:27:35.414Z,4.20
2018-09-17T16:30:13.583Z,4.30
2018-09-17T16:32:41.812Z,4.63
2018-09-17T16:35:09.853Z,5.63
2018-09-17T16:37:38.029Z,5.70
2018-09-17T16:40:06.529Z,5.60
2018-09-17T16:42:34.819Z,4.93
2018-09-17T16:45:02.877Z,4.93
2018-09-17T16:47:31.246Z,6.17
2018-09-17T16:49:59.309Z,6.80
2018-09-17T16:52:27.365Z,7.43
2018-09-17T16:54:55.410Z,6.47
2018-09-17T16:57:23.456Z,4.50
2018-09-17T16:59:51.511Z,4.60
2018-09-17T17:02:19.696Z,4.70
2018-09-17T17:04:47.783Z,4.33
2018-09-17T17:07:15.760Z,3.50
2018-09-17T17:09:43.820Z,3.80
2018-09-17T17:12:11.861Z,3.40
2018-09-17T17:14:40.800Z,2.90
2018-09-17T17:17:08.847Z,3.30
2018-09-17T17:19:36.953Z,2.80
2018-09-17T17:22:04.976Z,3.10
2018-09-17T17:24:33.036Z,2.90
2018-09-17T17:27:01.342Z,2.40
2018-09-17T17:29:29.696Z,2.90
2018-09-17T17:31:58.067Z,2.90
2018-09-17T17:34:26.104Z,3.43
2018-09-17T17:36:54.170Z,3.30
2018-09-17T17:39:22.281Z,4.30
2018-09-17T17:41:50.290Z,3.83
2018-09-17T17:44:18.329Z,4.20
2018-09-17T17:46:46.617Z,3.90
2018-09-17T17:49:14.645Z,3.47
2018-09-17T17:51:42.723Z,3.07
2018-09-17T17:54:10.759Z,3.23
2018-09-17T17:56:38.833Z,3.40
2018-09-17T17:59:07.392Z,3.23
2018-09-17T18:01:35.433Z,3.63
2018-09-17T18:04:03.568Z,3.50
2018-09-17T18:06:31.514Z,6.27
2018-09-17T18:08:59.545Z,8.17
2018-09-17T18:11:27.587Z,9.17
2018-09-17T18:13:55.612Z,8.80
2018-09-17T18:16:29.676Z,8.63
2018-09-17T18:18:58.257Z,8.83
2018-09-17T18:21:26.338Z,7.47
2018-09-17T18:23:54.357Z,5.60
2018-09-17T18:26:22.437Z,4.60
2018-09-17T18:28:50.518Z,4.77
2018-09-17T18:31:18.595Z,4.80
2018-09-17T18:33:46.632Z,5.20
2018-09-17T18:36:14.815Z,5.20
2018-09-17T18:38:42.996Z,4.87
2018-09-17T18:41:11.059Z,5.80
2018-09-17T18:46:31.484Z,5.57
2018-09-17T18:49:19.849Z,4.80
2018-09-17T18:51:47.887Z,4.43
2018-09-17T18:54:16.004Z,4.17
2018-09-17T18:56:44.226Z,4.42
2018-09-17T18:59:12.096Z,5.07
2018-09-17T19:01:40.508Z,5.23
2018-09-17T19:04:09.592Z,5.00
2018-09-17T19:06:37.625Z,5.03
2018-09-17T19:09:07.133Z,5.27
2018-09-17T19:11:35.297Z,5.07
2018-09-17T19:14:08.491Z,6.03
2018-09-17T19:16:41.936Z,6.30
2018-09-17T19:19:09.996Z,6.70
2018-09-17T19:21:43.403Z,6.60
2018-09-17T19:24:11.397Z,7.10
2018-09-17T19:26:39.369Z,7.13
2018-09-17T19:29:12.727Z,6.60
2018-09-17T19:31:40.711Z,6.20
2018-09-17T19:34:08.763Z,6.03
2018-09-17T19:36:36.799Z,5.77
2018-09-17T19:39:11.942Z,5.87
2018-09-17T19:41:40.140Z,7.00
2018-09-17T19:44:08.254Z,6.87
2018-09-17T19:46:42.489Z,6.47
2018-09-17T19:49:11.036Z,5.70
2018-09-17T19:51:44.500Z,6.07
2018-09-17T19:54:12.724Z,4.80
2018-09-17T19:56:40.696Z,5.33
2018-09-17T19:59:14.265Z,5.60
2018-09-17T20:01:42.349Z,6.00
2018-09-17T20:04:15.647Z,5.07
2018-09-17T20:06:43.845Z,5.27
2018-09-17T20:09:12.308Z,6.37
2018-09-17T20:11:40.524Z,6.10
2018-09-17T20:14:08.717Z,5.17
2018-09-17T20:16:36.759Z,5.47
2018-09-17T20:19:04.964Z,6.77
2018-09-17T20:21:32.996Z,7.10
2018-09-17T20:24:01.032Z,7.17
2018-09-17T20:26:29.083Z,7.37
2018-09-17T20:28:57.128Z,6.17
2018-09-17T20:31:25.181Z,6.60
2018-09-17T20:33:53.237Z,6.00
2018-09-17T20:36:21.322Z,5.85
2018-09-17T20:38:49.460Z,5.90
2018-09-17T20:41:17.400Z,5.87
2018-09-17T20:43:45.447Z,5.57
2018-09-17T20:46:13.529Z,5.55
2018-09-17T20:48:41.639Z,5.90
2018-09-17T20:51:09.685Z,5.40
2018-09-17T20:53:37.732Z,5.63
2018-09-17T20:56:05.877Z,6.73
2018-09-17T20:58:33.876Z,6.17
2018-09-17T21:01:02.000Z,5.90
2018-09-17T21:03:29.980Z,7.13
2018-09-17T21:05:58.025Z,6.97
2018-09-17T21:08:26.095Z,7.70
2018-09-17T21:10:54.149Z,7.43
2018-09-17T21:13:22.281Z,7.72
2018-09-17T21:15:50.313Z,8.57
2018-09-17T21:18:18.349Z,9.50
2018-09-17T21:20:46.386Z,8.27
2018-09-17T21:23:15.262Z,8.27
2018-09-17T21:25:43.395Z,7.77
2018-09-17T21:28:11.449Z,7.35
2018-09-17T21:30:39.478Z,8.10
2018-09-17T21:33:07.548Z,11.53
2018-09-17T21:35:35.583Z,14.57
2018-09-17T21:38:03.688Z,14.20
2018-09-17T21:40:31.739Z,11.70
2018-09-17T21:42:59.934Z,10.37
2018-09-17T21:45:27.819Z,9.37
2018-09-17T21:47:56.020Z,9.80
2018-09-17T21:50:24.061Z,10.47
2018-09-17T21:52:52.091Z,9.23
2018-09-17T21:55:20.154Z,9.77
2018-09-17T21:57:48.191Z,9.93
2018-09-17T22:00:16.251Z,10.70
2018-09-17T22:02:44.322Z,11.43
2018-09-17T22:05:12.441Z,10.25
2018-09-17T22:07:40.513Z,11.13
2018-09-17T22:10:08.582Z,10.27
2018-09-17T22:12:36.629Z,10.87
2018-09-17T22:15:05.600Z,10.28
2018-09-17T22:17:33.648Z,10.00
2018-09-17T22:20:01.926Z,9.78
2018-09-17T22:22:29.969Z,10.67
2018-09-17T22:24:58.003Z,10.33
2018-09-17T22:27:26.093Z,9.87
2018-09-17T22:29:54.123Z,9.33
2018-09-17T22:32:22.219Z,9.45
2018-09-17T22:34:50.260Z,7.87
2018-09-17T22:37:18.323Z,7.70
2018-09-17T22:39:46.380Z,7.60
2018-09-17T22:42:14.510Z,7.50
2018-09-17T22:44:42.484Z,7.17
2018-09-17T22:47:10.551Z,7.60
2018-09-17T22:49:38.596Z,7.60
2018-09-17T22:52:06.671Z,7.27
2018-09-17T22:54:34.712Z,7.30
2018-09-17T22:57:02.744Z,9.23
2018-09-17T22:59:30.779Z,7.00
2018-09-17T23:01:59.151Z,7.20
2018-09-17T23:04:27.206Z,8.00
2018-09-17T23:06:55.259Z,7.90
2018-09-17T23:09:23.352Z,8.03
2018-09-17T23:11:51.401Z,8.37
2018-09-17T23:14:19.440Z,8.48
2018-09-17T23:16:47.552Z,8.47
2018-09-17T23:19:15.595Z,8.45
2018-09-17T23:21:43.624Z,8.33
2018-09-17T23:24:11.854Z,7.53
2018-09-17T23:26:39.919Z,8.40
2018-09-17T23:29:07.980Z,7.70
2018-09-17T23:31:36.016Z,7.27
2018-09-17T23:34:04.608Z,6.95
2018-09-17T23:36:32.700Z,6.77
2018-09-17T23:39:00.763Z,6.83
2018-09-17T23:41:28.795Z,5.73
2018-09-17T23:43:56.832Z,6.67
2018-09-17T23:46:24.871Z,6.37
2018-09-17T23:48:52.924Z,6.53
2018-09-17T23:51:21.043Z,7.22
2018-09-17T23:53:49.084Z,5.90
2018-09-17T23:56:17.139Z,6.63
2018-09-17T23:58:45.184Z,7.03
